Terminal Aerodrome Forecast
Issued by NWS

Home | Current Version | Previous Version | Text Only | Print | Product List | Glossary On
Versions: 1 2 3 4 5 6 7 8 9 10 11 12 13 14 15 16 17 18 19 20 21
000
FTAK31 PAJN 170537
TAFASI
TAF
PASI 170537Z 1706/1806 19008KT P6SM -SHRA SCT015 OVC040
      TEMPO 1708/1712 2SM -SHRA BR SCT006 OVC015
     FM171200 14009G15KT 4SM SHRA BR BKN005 OVC015
     FM171800 20008KT 6SM -SHRA SCT005 OVC020
     FM172100 19009G15KT 4SM -SHRA BR VCTS SCT012 OVC020CB
     FM180300 18010G17KT P6SM -SHRA BKN020 OVC040=

USA.gov is the U.S. government's official web portal to all federal, state and local government web resources and services.